createdAt,value
2018-04-19T00:00:04.790Z,3.70
2018-04-19T00:02:31.142Z,3.90
2018-04-19T00:04:57.597Z,4.27
2018-04-19T00:07:23.957Z,3.60
2018-04-19T00:09:50.387Z,3.77
2018-04-19T00:12:16.761Z,3.63
2018-04-19T00:14:43.189Z,3.60
2018-04-19T00:17:09.653Z,3.90
2018-04-19T00:19:36.048Z,3.77
2018-04-19T00:22:02.465Z,3.70
2018-04-19T00:24:28.877Z,3.93
2018-04-19T00:26:55.352Z,4.10
2018-04-19T00:29:21.895Z,4.30
2018-04-19T00:31:48.277Z,4.10
2018-04-19T00:34:14.682Z,3.37
2018-04-19T00:36:41.205Z,3.40
2018-04-19T00:39:07.692Z,3.43
2018-04-19T00:41:34.069Z,3.83
2018-04-19T00:44:00.455Z,4.00
2018-04-19T00:46:26.981Z,4.00
2018-04-19T00:48:53.363Z,3.20
2018-04-19T00:51:19.797Z,3.70
2018-04-19T00:53:46.280Z,3.80
2018-04-19T00:56:12.715Z,3.67
2018-04-19T00:58:39.138Z,4.07
2018-04-19T01:01:05.531Z,3.30
2018-04-19T01:03:31.939Z,4.00
2018-04-19T01:05:58.314Z,3.77
2018-04-19T01:08:24.793Z,3.47
2018-04-19T01:10:51.407Z,3.70
2018-04-19T01:13:17.820Z,3.70
2018-04-19T01:15:44.188Z,3.30
2018-04-19T01:18:10.550Z,3.70
2018-04-19T01:20:36.907Z,3.60
2018-04-19T01:23:03.301Z,3.27
2018-04-19T01:25:29.749Z,3.60
2018-04-19T01:27:56.675Z,3.60
2018-04-19T01:30:23.197Z,3.60
2018-04-19T01:32:49.551Z,3.23
2018-04-19T01:35:15.936Z,3.23
2018-04-19T01:37:42.432Z,3.27
2018-04-19T01:40:08.848Z,3.90
2018-04-19T01:42:35.225Z,3.00
2018-04-19T01:45:01.595Z,3.30
2018-04-19T01:47:27.967Z,3.40
2018-04-19T01:49:54.348Z,3.50
2018-04-19T01:52:20.835Z,3.63
2018-04-19T01:54:47.203Z,3.30
2018-04-19T01:57:13.645Z,3.40
2018-04-19T01:59:40.005Z,3.50
2018-04-19T02:02:06.499Z,3.20
2018-04-19T02:04:32.871Z,2.90
2018-04-19T02:06:59.304Z,3.10
2018-04-19T02:09:25.859Z,3.50
2018-04-19T02:11:52.236Z,2.90
2018-04-19T02:14:18.719Z,3.70
2018-04-19T02:16:45.137Z,3.60
2018-04-19T02:19:11.532Z,3.23
2018-04-19T02:21:37.959Z,3.13
2018-04-19T02:24:04.392Z,3.50
2018-04-19T02:26:30.768Z,3.50
2018-04-19T02:28:57.188Z,3.03
2018-04-19T02:31:23.802Z,3.40
2018-04-19T02:33:50.255Z,3.40
2018-04-19T02:36:16.685Z,3.50
2018-04-19T02:38:43.104Z,3.17
2018-04-19T02:41:09.477Z,3.40
2018-04-19T02:43:35.888Z,3.10
2018-04-19T02:46:02.266Z,3.80
2018-04-19T02:48:28.688Z,3.20
2018-04-19T02:50:55.053Z,3.20
2018-04-19T02:53:21.527Z,3.33
2018-04-19T02:55:47.914Z,3.43
2018-04-19T02:58:14.475Z,2.63
2018-04-19T03:00:40.868Z,3.50
2018-04-19T03:03:07.236Z,3.40
2018-04-19T03:05:33.671Z,3.20
2018-04-19T03:08:00.070Z,3.17
2018-04-19T03:10:26.429Z,2.83
2018-04-19T03:12:52.810Z,2.97
2018-04-19T03:15:19.124Z,2.97
2018-04-19T03:17:45.546Z,3.33
2018-04-19T03:20:12.072Z,3.20
2018-04-19T03:22:38.429Z,3.10
2018-04-19T03:25:04.770Z,3.43
2018-04-19T03:27:31.136Z,3.33
2018-04-19T03:29:57.840Z,2.70
2018-04-19T03:32:24.208Z,3.23
2018-04-19T03:34:50.739Z,3.30
2018-04-19T03:37:17.161Z,3.33
2018-04-19T03:39:43.510Z,2.93
2018-04-19T03:42:09.896Z,3.47
2018-04-19T03:44:36.277Z,9.63
2018-04-19T03:47:02.683Z,3.67
2018-04-19T03:49:29.214Z,3.20
2018-04-19T03:51:55.546Z,3.47
2018-04-19T03:54:22.163Z,11.20
2018-04-19T03:56:48.673Z,7.70
2018-04-19T03:59:15.117Z,4.30
2018-04-19T04:01:41.453Z,4.10
2018-04-19T04:04:07.942Z,4.53
2018-04-19T04:06:35.496Z,4.53
2018-04-19T04:09:01.936Z,4.80
2018-04-19T04:11:28.324Z,4.10
2018-04-19T04:13:54.670Z,3.87
2018-04-19T04:16:21.052Z,5.10
2018-04-19T04:18:47.479Z,5.77
2018-04-19T04:21:13.817Z,5.53
2018-04-19T04:23:40.225Z,5.80
2018-04-19T04:26:06.655Z,5.73
2018-04-19T04:28:33.013Z,5.60
2018-04-19T04:30:59.621Z,4.77
2018-04-19T04:33:26.146Z,6.07
2018-04-19T04:35:52.484Z,4.97
2018-04-19T04:38:18.823Z,5.20
2018-04-19T04:40:45.377Z,5.00
2018-04-19T04:43:11.787Z,5.30
2018-04-19T04:45:38.375Z,4.97
2018-04-19T04:48:04.784Z,5.07
2018-04-19T04:50:31.139Z,4.63
2018-04-19T04:52:57.668Z,4.80
2018-04-19T04:55:24.016Z,5.37
2018-04-19T04:57:50.727Z,4.87
2018-04-19T05:00:17.204Z,5.40
2018-04-19T05:02:43.626Z,4.43
2018-04-19T05:05:10.008Z,4.70
2018-04-19T05:07:36.462Z,4.63
2018-04-19T05:10:02.795Z,5.50
2018-04-19T05:12:29.485Z,5.00
2018-04-19T05:14:55.938Z,4.87
2018-04-19T05:17:22.466Z,5.17
2018-04-19T05:19:48.803Z,5.30
2018-04-19T05:22:15.148Z,5.47
2018-04-19T05:24:41.706Z,5.70
2018-04-19T05:27:08.134Z,5.73
2018-04-19T05:29:34.513Z,6.17
2018-04-19T05:32:01.120Z,5.93
2018-04-19T05:34:27.510Z,5.97
2018-04-19T05:36:53.984Z,5.30
2018-04-19T05:39:20.383Z,7.17
2018-04-19T05:41:46.735Z,6.27
2018-04-19T05:44:13.118Z,6.33
2018-04-19T05:46:39.722Z,7.03
2018-04-19T05:49:06.295Z,6.40
2018-04-19T05:51:33.179Z,4.80
2018-04-19T05:53:59.609Z,5.10
2018-04-19T05:56:26.048Z,5.80
2018-04-19T05:58:52.656Z,6.13
2018-04-19T06:01:19.426Z,7.17
2018-04-19T06:03:46.119Z,4.80
2018-04-19T06:06:12.548Z,5.40
2018-04-19T06:08:38.943Z,5.20
2018-04-19T06:11:05.373Z,6.73
2018-04-19T06:13:31.719Z,6.20
2018-04-19T06:15:58.165Z,6.00
2018-04-19T06:18:24.498Z,6.33
2018-04-19T06:20:50.895Z,7.40
2018-04-19T06:23:17.311Z,7.50
2018-04-19T06:25:43.648Z,7.37
2018-04-19T06:28:10.029Z,7.90
2018-04-19T06:30:36.396Z,6.00
2018-04-19T06:33:02.868Z,7.87
2018-04-19T06:35:29.182Z,6.37
2018-04-19T06:37:55.661Z,7.30
2018-04-19T06:40:22.093Z,6.13
2018-04-19T06:42:48.450Z,5.97
2018-04-19T06:45:14.915Z,7.93
2018-04-19T06:47:41.353Z,6.93
2018-04-19T06:52:29.130Z,6.17
2018-04-19T06:54:55.822Z,7.47
2018-04-19T06:57:22.304Z,7.27
2018-04-19T06:59:49.139Z,6.50
2018-04-19T07:02:15.788Z,8.30
2018-04-19T07:07:15.052Z,5.90
2018-04-19T07:09:41.700Z,5.50
2018-04-19T07:12:08.197Z,5.80
2018-04-19T07:14:34.836Z,6.33
2018-04-19T07:17:01.402Z,6.03
2018-04-19T07:19:28.286Z,7.00
2018-04-19T07:21:55.427Z,6.77
2018-04-19T07:24:21.945Z,6.40
2018-04-19T07:26:48.319Z,6.60
2018-04-19T07:29:14.753Z,5.80
2018-04-19T07:31:42.221Z,5.40
2018-04-19T07:34:08.808Z,6.60
2018-04-19T07:36:36.827Z,6.40
2018-04-19T07:39:03.762Z,7.83
2018-04-19T07:41:30.186Z,6.60
2018-04-19T07:43:56.993Z,6.23
2018-04-19T07:46:23.476Z,6.77
2018-04-19T07:48:50.493Z,5.50
2018-04-19T07:51:17.430Z,6.93
2018-04-19T07:53:43.945Z,7.50
2018-04-19T07:56:10.785Z,6.77
2018-04-19T07:58:37.336Z,7.10
2018-04-19T08:01:04.010Z,6.33
2018-04-19T08:03:30.878Z,6.50
2018-04-19T08:05:57.355Z,6.30
2018-04-19T08:08:23.890Z,7.00
2018-04-19T08:10:50.860Z,7.00
2018-04-19T08:13:17.946Z,6.93
2018-04-19T08:15:44.458Z,6.10
2018-04-19T08:18:11.021Z,6.10
2018-04-19T08:20:38.270Z,6.20
2018-04-19T08:23:05.155Z,5.27
2018-04-19T08:25:32.606Z,5.00
2018-04-19T08:27:59.313Z,5.40
2018-04-19T08:30:26.111Z,6.87
2018-04-19T08:32:52.740Z,7.00
2018-04-19T08:35:19.415Z,5.80
2018-04-19T08:37:46.083Z,7.67
2018-04-19T08:40:13.928Z,7.93
2018-04-19T08:42:40.531Z,7.43
2018-04-19T08:45:08.055Z,7.53
2018-04-19T08:47:34.506Z,6.80
2018-04-19T08:50:01.005Z,5.90
2018-04-19T08:52:28.101Z,5.80
2018-04-19T08:54:55.809Z,7.00
2018-04-19T08:57:22.310Z,7.17
2018-04-19T08:59:49.739Z,6.13
2018-04-19T09:02:16.144Z,6.57
2018-04-19T09:04:42.872Z,6.07
2018-04-19T09:07:09.718Z,6.37
2018-04-19T09:09:36.409Z,6.87
2018-04-19T09:12:02.844Z,7.33
2018-04-19T09:14:29.555Z,6.80
2018-04-19T09:16:56.200Z,7.33
2018-04-19T09:19:23.104Z,7.47
2018-04-19T09:21:49.609Z,6.87
2018-04-19T09:24:17.216Z,6.63
2018-04-19T09:26:43.992Z,6.13
2018-04-19T09:29:10.410Z,7.83
2018-04-19T09:31:37.037Z,5.83
2018-04-19T09:34:03.446Z,6.10
2018-04-19T09:36:30.296Z,4.70
2018-04-19T09:38:56.733Z,6.20
2018-04-19T09:41:23.665Z,4.83
2018-04-19T09:43:50.151Z,6.47
2018-04-19T09:46:16.500Z,6.83
2018-04-19T09:48:42.918Z,6.30
2018-04-19T09:51:09.348Z,5.27
2018-04-19T09:53:35.725Z,5.47
2018-04-19T09:56:02.225Z,5.53
2018-04-19T09:58:28.638Z,6.17
2018-04-19T10:00:55.467Z,5.63
2018-04-19T10:03:21.876Z,5.00
2018-04-19T10:05:48.246Z,5.53
2018-04-19T10:08:14.601Z,5.63
2018-04-19T10:10:41.007Z,4.83
2018-04-19T10:13:07.605Z,5.50
2018-04-19T10:15:34.059Z,5.53
2018-04-19T10:18:00.402Z,6.03
2018-04-19T10:20:26.810Z,5.73
2018-04-19T10:22:53.157Z,4.50
2018-04-19T10:25:19.511Z,5.33
2018-04-19T10:27:45.930Z,5.60
2018-04-19T10:30:12.297Z,4.87
2018-04-19T10:32:38.769Z,5.17
2018-04-19T10:35:06.105Z,5.97
2018-04-19T10:37:32.589Z,5.33
2018-04-19T10:39:59.013Z,5.10
2018-04-19T10:42:25.396Z,5.10
2018-04-19T10:44:51.724Z,5.50
2018-04-19T10:47:18.127Z,5.53
2018-04-19T10:49:44.466Z,4.57
2018-04-19T10:52:10.871Z,4.50
2018-04-19T10:54:37.222Z,4.53
2018-04-19T10:57:03.658Z,4.30
2018-04-19T10:59:30.251Z,4.40
2018-04-19T11:01:56.597Z,4.90
2018-04-19T11:04:24.032Z,4.73
2018-04-19T11:06:50.557Z,4.60
2018-04-19T11:09:17.143Z,4.90
2018-04-19T11:11:43.801Z,5.23
2018-04-19T11:14:10.675Z,5.20
2018-04-19T11:16:37.329Z,5.20
2018-04-19T11:19:04.107Z,4.27
2018-04-19T11:21:30.713Z,4.17
2018-04-19T11:23:57.167Z,3.87
2018-04-19T11:26:24.026Z,5.33
2018-04-19T11:28:50.786Z,5.20
2018-04-19T11:31:17.172Z,5.10
2018-04-19T11:33:43.592Z,4.80
2018-04-19T11:36:10.112Z,4.50
2018-04-19T11:38:36.752Z,4.43
2018-04-19T11:41:05.543Z,3.77
2018-04-19T11:43:32.251Z,4.50
2018-04-19T11:45:59.066Z,4.30
2018-04-19T11:48:25.565Z,5.00
2018-04-19T11:50:52.352Z,4.97
2018-04-19T11:53:18.906Z,5.57
2018-04-19T11:55:45.624Z,4.93
2018-04-19T11:58:12.336Z,4.30
2018-04-19T12:00:38.970Z,4.80
2018-04-19T12:03:05.592Z,3.83
2018-04-19T12:05:32.785Z,4.73
2018-04-19T12:07:59.865Z,4.97
2018-04-19T12:10:26.581Z,4.90
2018-04-19T12:12:53.067Z,4.77
2018-04-19T12:15:19.545Z,4.33
2018-04-19T12:17:46.919Z,4.23
2018-04-19T12:20:13.516Z,3.80
2018-04-19T12:22:40.384Z,4.67
2018-04-19T12:25:07.431Z,4.23
2018-04-19T12:27:33.959Z,4.40
2018-04-19T12:30:00.522Z,3.87
2018-04-19T12:32:26.995Z,4.10
2018-04-19T12:34:53.458Z,4.80
2018-04-19T12:37:20.237Z,4.70
2018-04-19T12:39:46.716Z,4.50
2018-04-19T12:42:13.063Z,4.60
2018-04-19T12:44:39.531Z,4.73
2018-04-19T12:47:05.911Z,4.10
2018-04-19T12:49:32.308Z,4.20
2018-04-19T12:51:58.731Z,4.20
2018-04-19T12:54:25.140Z,4.17
2018-04-19T12:56:51.534Z,4.00
2018-04-19T12:59:17.953Z,4.60
2018-04-19T13:01:44.542Z,4.10
2018-04-19T13:04:12.439Z,4.00
2018-04-19T13:06:38.850Z,3.83
2018-04-19T13:09:05.374Z,4.80
2018-04-19T13:11:31.902Z,3.97
2018-04-19T13:13:58.269Z,4.03
2018-04-19T13:16:24.794Z,4.10
2018-04-19T13:18:51.147Z,4.90
2018-04-19T13:21:17.581Z,4.10
2018-04-19T13:23:43.945Z,3.77
2018-04-19T13:26:10.325Z,4.13
2018-04-19T13:28:36.730Z,4.70
2018-04-19T13:31:03.130Z,4.07
2018-04-19T13:33:29.487Z,4.50
2018-04-19T13:35:55.825Z,5.33
2018-04-19T13:38:22.151Z,4.37
2018-04-19T13:40:48.535Z,4.23
2018-04-19T13:43:15.105Z,4.57
2018-04-19T13:45:41.554Z,4.20
2018-04-19T13:48:07.914Z,4.50
2018-04-19T13:50:34.372Z,4.97
2018-04-19T13:53:00.827Z,3.70
2018-04-19T13:55:28.060Z,5.90
2018-04-19T13:57:54.434Z,5.20
2018-04-19T14:00:21.563Z,6.17
2018-04-19T14:02:49.010Z,7.20
2018-04-19T14:05:15.377Z,6.20
2018-04-19T14:07:41.855Z,6.80
2018-04-19T14:10:08.225Z,7.27
2018-04-19T14:12:34.742Z,6.23
2018-04-19T14:15:01.203Z,6.73
2018-04-19T14:17:27.570Z,6.83
2018-04-19T14:19:54.074Z,7.90
2018-04-19T14:22:20.659Z,7.10
2018-04-19T14:24:47.061Z,6.83
2018-04-19T14:27:13.441Z,6.33
2018-04-19T14:29:39.910Z,7.70
2018-04-19T14:32:06.339Z,6.80
2018-04-19T14:34:32.672Z,6.87
2018-04-19T14:36:59.053Z,7.37
2018-04-19T14:39:25.897Z,7.70
2018-04-19T14:41:53.039Z,7.80
2018-04-19T14:44:19.537Z,7.30
2018-04-19T14:46:45.967Z,7.57
2018-04-19T14:49:13.499Z,7.77
2018-04-19T14:51:40.887Z,8.60
2018-04-19T14:54:07.502Z,7.43
2018-04-19T14:56:33.876Z,7.73
2018-04-19T14:59:00.714Z,7.83
2018-04-19T15:01:27.133Z,8.00
2018-04-19T15:03:53.707Z,8.10
2018-04-19T15:06:20.503Z,8.73
2018-04-19T15:08:47.213Z,9.63
2018-04-19T15:11:13.600Z,9.40
2018-04-19T15:13:39.995Z,9.10
2018-04-19T15:16:06.423Z,9.80
2018-04-19T15:18:32.751Z,10.30
2018-04-19T15:20:59.319Z,8.83
2018-04-19T15:23:25.857Z,10.17
2018-04-19T15:25:52.293Z,8.20
2018-04-19T15:28:18.696Z,9.67
2018-04-19T15:30:45.034Z,9.40
2018-04-19T15:33:11.484Z,8.37
2018-04-19T15:35:37.865Z,10.63
2018-04-19T15:38:04.197Z,10.97
2018-04-19T15:40:30.625Z,8.93
2018-04-19T15:42:57.036Z,9.03
2018-04-19T15:45:23.417Z,9.20
2018-04-19T15:47:50.029Z,9.93
2018-04-19T15:50:16.373Z,9.40
2018-04-19T15:52:42.756Z,9.07
2018-04-19T15:55:09.181Z,10.20
2018-04-19T15:57:35.595Z,9.30
2018-04-19T16:00:01.952Z,9.50
2018-04-19T16:02:28.297Z,10.90
2018-04-19T16:04:54.684Z,9.20
2018-04-19T16:07:21.114Z,9.77
2018-04-19T16:09:47.491Z,9.13
2018-04-19T16:12:13.862Z,9.07
2018-04-19T16:14:40.377Z,8.80
2018-04-19T16:17:06.740Z,9.43
2018-04-19T16:19:33.131Z,9.37
2018-04-19T16:21:59.694Z,8.97
2018-04-19T16:24:26.037Z,9.33
2018-04-19T16:26:52.417Z,8.90
2018-04-19T16:29:18.831Z,8.23
2018-04-19T16:31:45.210Z,9.17
2018-04-19T16:34:11.543Z,9.03
2018-04-19T16:36:37.875Z,8.70
2018-04-19T16:39:04.248Z,7.73
2018-04-19T16:41:30.648Z,7.63
2018-04-19T16:43:56.977Z,8.43
2018-04-19T16:46:23.350Z,7.87
2018-04-19T16:48:49.712Z,7.80
2018-04-19T16:51:16.035Z,7.10
2018-04-19T16:53:42.388Z,7.43
2018-04-19T16:56:08.777Z,8.40
2018-04-19T16:58:35.180Z,7.00
2018-04-19T17:01:01.588Z,6.67
2018-04-19T17:03:27.909Z,6.70
2018-04-19T17:05:54.340Z,7.30
2018-04-19T17:08:20.721Z,7.53
2018-04-19T17:10:48.136Z,6.70
2018-04-19T17:13:14.485Z,7.57
2018-04-19T17:15:40.852Z,7.70
2018-04-19T17:18:07.243Z,6.17
2018-04-19T17:20:33.578Z,7.70
2018-04-19T17:22:59.985Z,7.03
2018-04-19T17:25:26.345Z,7.37
2018-04-19T17:27:52.671Z,7.37
2018-04-19T17:30:19.097Z,7.20
2018-04-19T17:32:45.467Z,7.00
2018-04-19T17:35:11.881Z,8.40
2018-04-19T17:37:38.249Z,7.43
2018-04-19T17:40:04.593Z,6.83
2018-04-19T17:42:30.936Z,6.20
2018-04-19T17:44:57.283Z,6.77
2018-04-19T17:47:23.622Z,7.87
2018-04-19T17:49:50.133Z,6.47
2018-04-19T17:52:16.468Z,7.00
2018-04-19T17:54:42.875Z,7.03
2018-04-19T17:57:09.254Z,7.63
2018-04-19T17:59:35.592Z,7.47
2018-04-19T18:02:01.975Z,6.57
2018-04-19T18:04:28.334Z,7.40
2018-04-19T18:06:54.652Z,6.87
2018-04-19T18:09:20.981Z,6.50
2018-04-19T18:11:47.372Z,6.83
2018-04-19T18:14:13.711Z,6.60
2018-04-19T18:16:40.096Z,6.67
2018-04-19T18:19:06.438Z,6.60
2018-04-19T18:21:32.756Z,6.27
2018-04-19T18:23:59.134Z,6.30
2018-04-19T18:26:25.533Z,5.93
2018-04-19T18:28:51.884Z,6.20
2018-04-19T18:31:18.204Z,6.50
2018-04-19T18:33:44.571Z,6.33
2018-04-19T18:36:10.940Z,6.47
2018-04-19T18:38:37.286Z,6.43
2018-04-19T18:41:03.664Z,6.23
2018-04-19T18:43:30.036Z,5.80
2018-04-19T18:45:56.495Z,6.10
2018-04-19T18:48:22.816Z,6.00
2018-04-19T18:50:49.224Z,5.40
2018-04-19T18:53:15.608Z,6.47
2018-04-19T18:55:41.934Z,5.80
2018-04-19T18:58:08.326Z,5.10
2018-04-19T19:00:34.647Z,5.40
2018-04-19T19:03:01.040Z,5.90
2018-04-19T19:05:27.368Z,6.00
2018-04-19T19:07:53.755Z,6.13
2018-04-19T19:10:20.079Z,6.00
2018-04-19T19:12:46.453Z,5.57
2018-04-19T19:15:12.801Z,5.60
2018-04-19T19:17:39.140Z,5.67
2018-04-19T19:20:05.518Z,5.57
2018-04-19T19:22:31.891Z,5.47
2018-04-19T19:24:58.244Z,5.70
2018-04-19T19:27:24.611Z,5.70
2018-04-19T19:29:50.936Z,5.30
2018-04-19T19:32:17.360Z,5.63
2018-04-19T19:34:43.786Z,5.30
2018-04-19T19:37:10.162Z,5.27
2018-04-19T19:39:36.556Z,5.13
2018-04-19T19:42:02.924Z,5.00
2018-04-19T19:44:29.432Z,4.80
2018-04-19T19:46:55.840Z,4.53
2018-04-19T19:49:22.160Z,5.10
2018-04-19T19:51:48.512Z,5.10
2018-04-19T19:54:14.906Z,5.10
2018-04-19T19:56:41.447Z,4.97
2018-04-19T19:59:07.906Z,4.33
2018-04-19T20:01:34.228Z,4.80
2018-04-19T20:04:00.561Z,4.50
2018-04-19T20:06:26.878Z,5.30
2018-04-19T20:08:53.216Z,5.27
2018-04-19T20:11:19.553Z,4.80
2018-04-19T20:13:45.868Z,4.50
2018-04-19T20:16:12.255Z,4.60
2018-04-19T20:18:38.592Z,5.03
2018-04-19T20:21:04.931Z,5.10
2018-04-19T20:23:31.262Z,4.70
2018-04-19T20:25:57.587Z,4.80
2018-04-19T20:28:23.907Z,4.20
2018-04-19T20:30:50.300Z,5.00
2018-04-19T20:33:16.699Z,4.60
2018-04-19T20:35:43.039Z,4.53
2018-04-19T20:38:09.432Z,4.60
2018-04-19T20:40:35.800Z,4.50
2018-04-19T20:43:02.175Z,4.80
2018-04-19T20:45:28.569Z,4.57
2018-04-19T20:47:54.944Z,4.90
2018-04-19T20:50:21.276Z,4.97
2018-04-19T20:52:47.686Z,4.30
2018-04-19T20:55:14.040Z,4.40
2018-04-19T20:57:40.478Z,4.30
2018-04-19T21:00:06.761Z,4.63
2018-04-19T21:02:33.130Z,4.30
2018-04-19T21:04:59.460Z,4.90
2018-04-19T21:07:25.925Z,4.03
2018-04-19T21:09:52.255Z,4.77
2018-04-19T21:12:18.644Z,3.67
2018-04-19T21:14:44.952Z,4.10
2018-04-19T21:17:11.276Z,4.20
2018-04-19T21:19:37.644Z,4.20
2018-04-19T21:22:03.976Z,4.30
2018-04-19T21:24:30.346Z,4.60
2018-04-19T21:26:56.703Z,4.80
2018-04-19T21:29:23.070Z,4.03
2018-04-19T21:31:49.428Z,4.20
2018-04-19T21:34:15.795Z,4.30
2018-04-19T21:36:42.217Z,4.03
2018-04-19T21:39:08.532Z,4.40
2018-04-19T21:41:34.883Z,4.43
2018-04-19T21:44:01.206Z,4.30
2018-04-19T21:46:27.595Z,4.10
2018-04-19T21:48:53.908Z,4.27
2018-04-19T21:51:20.288Z,3.87
2018-04-19T21:53:46.599Z,4.10
2018-04-19T21:56:12.924Z,3.80
2018-04-19T21:58:39.249Z,3.90
2018-04-19T22:01:05.608Z,4.17
2018-04-19T22:03:31.988Z,4.43
2018-04-19T22:05:58.319Z,4.07
2018-04-19T22:08:24.692Z,3.83
2018-04-19T22:10:51.021Z,4.20
2018-04-19T22:13:17.347Z,3.57
2018-04-19T22:15:43.703Z,3.97
2018-04-19T22:18:10.073Z,4.07
2018-04-19T22:20:36.474Z,3.40
2018-04-19T22:23:02.851Z,4.00
2018-04-19T22:25:29.165Z,3.90
2018-04-19T22:27:55.625Z,3.73
2018-04-19T22:30:21.944Z,3.70
2018-04-19T22:32:48.274Z,3.80
2018-04-19T22:35:14.641Z,4.10
2018-04-19T22:37:40.984Z,3.80
2018-04-19T22:40:07.308Z,3.67
2018-04-19T22:42:33.628Z,3.30
2018-04-19T22:44:59.964Z,3.40
2018-04-19T22:47:26.285Z,3.83
2018-04-19T22:49:52.631Z,3.50
2018-04-19T22:52:18.974Z,3.67
2018-04-19T22:54:45.300Z,3.60
2018-04-19T22:57:11.761Z,3.80
2018-04-19T22:59:38.093Z,3.70
2018-04-19T23:02:04.485Z,3.77
2018-04-19T23:04:30.811Z,3.80
2018-04-19T23:06:57.215Z,3.23
2018-04-19T23:09:23.615Z,3.60
2018-04-19T23:11:49.948Z,3.30
2018-04-19T23:14:16.360Z,3.83
2018-04-19T23:16:42.680Z,3.63
2018-04-19T23:19:09.019Z,3.40
2018-04-19T23:21:35.345Z,3.50
2018-04-19T23:24:01.687Z,3.30
2018-04-19T23:26:28.008Z,3.67
2018-04-19T23:28:54.385Z,3.30
2018-04-19T23:31:20.722Z,3.57
2018-04-19T23:33:47.075Z,3.70
2018-04-19T23:36:13.422Z,3.83
2018-04-19T23:38:39.884Z,3.70
2018-04-19T23:41:06.214Z,3.20
2018-04-19T23:43:32.593Z,3.50
2018-04-19T23:45:58.925Z,3.57
2018-04-19T23:48:25.262Z,3.30
2018-04-19T23:50:51.596Z,3.57
2018-04-19T23:53:18.051Z,3.17
2018-04-19T23:55:44.431Z,2.90
2018-04-19T23:58:10.754Z,3.57
